Terminal Aerodrome Forecast
Issued by NWS Atlanta, GA

Home | Current Version | Previous Version | Text Only | Print | Product List | Glossary On
Versions: 1 2 3 4 5 6 7 8 9 10 11 12 13 14 15 16 17 18 19 20 21 22 23 24 25 26 27 28 29 30 31 32 33 34 35 36 37 38
000
FTUS42 KFFC 290331 AAB
TAFATL
TAF AMD
KATL 290331Z 2904/3006 31006KT P6SM SKC
     FM290600 35004KT P6SM SKC
     FM291200 08005KT P6SM SKC
     FM291500 12007KT P6SM FEW250
     FM292000 16008KT P6SM SCT050
     FM300400 17006KT P6SM BKN050=

USA.gov is the U.S. government's official web portal to all federal, state and local government web resources and services.